sensor_id;sensor_type;location;lat;lon;timestamp;P1;durP1;ratioP1;P2;durP2;ratioP2
13032;SDS011;6583;42.632;23.298;2023-09-12T00:00:38;4.27;;;3.57;;
13032;SDS011;6583;42.632;23.298;2023-09-12T00:03:05;5.67;;;3.70;;
13032;SDS011;6583;42.632;23.298;2023-09-12T00:05:32;3.67;;;2.90;;
13032;SDS011;6583;42.632;23.298;2023-09-12T00:07:58;4.30;;;3.20;;
13032;SDS011;6583;42.632;23.298;2023-09-12T00:10:25;4.67;;;2.90;;
13032;SDS011;6583;42.632;23.298;2023-09-12T00:12:53;3.23;;;2.93;;
13032;SDS011;6583;42.632;23.298;2023-09-12T00:15:21;3.87;;;3.10;;
13032;SDS011;6583;42.632;23.298;2023-09-12T00:17:48;2.93;;;2.63;;
13032;SDS011;6583;42.632;23.298;2023-09-12T00:20:14;4.00;;;2.80;;
13032;SDS011;6583;42.632;23.298;2023-09-12T00:22:41;3.23;;;2.90;;
13032;SDS011;6583;42.632;23.298;2023-09-12T00:25:08;3.83;;;3.10;;
13032;SDS011;6583;42.632;23.298;2023-09-12T00:27:34;2.80;;;2.60;;
13032;SDS011;6583;42.632;23.298;2023-09-12T00:30:01;3.50;;;3.20;;
13032;SDS011;6583;42.632;23.298;2023-09-12T00:32:29;4.05;;;3.03;;
13032;SDS011;6583;42.632;23.298;2023-09-12T00:34:56;5.63;;;3.20;;
13032;SDS011;6583;42.632;23.298;2023-09-12T00:37:23;4.73;;;2.97;;
13032;SDS011;6583;42.632;23.298;2023-09-12T00:39:49;3.93;;;3.07;;
13032;SDS011;6583;42.632;23.298;2023-09-12T00:42:16;4.13;;;2.97;;
13032;SDS011;6583;42.632;23.298;2023-09-12T00:44:42;3.60;;;3.10;;
13032;SDS011;6583;42.632;23.298;2023-09-12T00:47:09;4.40;;;2.97;;
13032;SDS011;6583;42.632;23.298;2023-09-12T00:49:39;4.07;;;2.73;;
13032;SDS011;6583;42.632;23.298;2023-09-12T00:52:06;4.43;;;2.83;;
13032;SDS011;6583;42.632;23.298;2023-09-12T00:54:34;4.43;;;3.20;;
13032;SDS011;6583;42.632;23.298;2023-09-12T00:57:00;3.60;;;3.20;;
13032;SDS011;6583;42.632;23.298;2023-09-12T00:59:27;3.07;;;2.80;;
13032;SDS011;6583;42.632;23.298;2023-09-12T01:01:54;3.00;;;2.80;;
13032;SDS011;6583;42.632;23.298;2023-09-12T01:04:21;5.33;;;3.03;;
13032;SDS011;6583;42.632;23.298;2023-09-12T01:06:49;3.73;;;3.03;;
13032;SDS011;6583;42.632;23.298;2023-09-12T01:09:16;4.70;;;3.03;;
13032;SDS011;6583;42.632;23.298;2023-09-12T01:11:43;4.10;;;2.90;;
13032;SDS011;6583;42.632;23.298;2023-09-12T01:14:10;3.70;;;3.17;;
13032;SDS011;6583;42.632;23.298;2023-09-12T01:16:37;4.00;;;3.27;;
13032;SDS011;6583;42.632;23.298;2023-09-12T01:19:04;3.50;;;3.20;;
13032;SDS011;6583;42.632;23.298;2023-09-12T01:21:48;3.60;;;3.00;;
13032;SDS011;6583;42.632;23.298;2023-09-12T01:27:35;4.80;;;3.27;;
13032;SDS011;6583;42.632;23.298;2023-09-12T01:30:05;3.40;;;3.00;;
13032;SDS011;6583;42.632;23.298;2023-09-12T01:32:33;3.30;;;3.00;;
13032;SDS011;6583;42.632;23.298;2023-09-12T01:35:01;4.03;;;2.90;;
13032;SDS011;6583;42.632;23.298;2023-09-12T01:37:28;3.53;;;3.10;;
13032;SDS011;6583;42.632;23.298;2023-09-12T01:39:55;4.43;;;2.93;;
13032;SDS011;6583;42.632;23.298;2023-09-12T01:42:22;6.73;;;2.97;;
13032;SDS011;6583;42.632;23.298;2023-09-12T01:44:55;3.90;;;3.13;;
13032;SDS011;6583;42.632;23.298;2023-09-12T01:47:23;3.17;;;2.87;;
13032;SDS011;6583;42.632;23.298;2023-09-12T01:49:52;3.53;;;3.23;;
13032;SDS011;6583;42.632;23.298;2023-09-12T01:52:22;3.43;;;3.13;;
13032;SDS011;6583;42.632;23.298;2023-09-12T01:54:50;3.20;;;2.50;;
13032;SDS011;6583;42.632;23.298;2023-09-12T01:57:19;5.50;;;3.53;;
13032;SDS011;6583;42.632;23.298;2023-09-12T01:59:46;3.90;;;3.17;;
13032;SDS011;6583;42.632;23.298;2023-09-12T02:02:15;3.40;;;3.10;;
13032;SDS011;6583;42.632;23.298;2023-09-12T02:04:42;5.00;;;3.00;;
13032;SDS011;6583;42.632;23.298;2023-09-12T02:07:17;4.00;;;3.20;;
13032;SDS011;6583;42.632;23.298;2023-09-12T02:09:44;4.13;;;2.97;;
13032;SDS011;6583;42.632;23.298;2023-09-12T02:12:11;3.77;;;3.20;;
13032;SDS011;6583;42.632;23.298;2023-09-12T02:14:37;4.10;;;3.00;;
13032;SDS011;6583;42.632;23.298;2023-09-12T02:17:04;3.40;;;3.10;;
13032;SDS011;6583;42.632;23.298;2023-09-12T02:19:32;4.00;;;3.10;;
13032;SDS011;6583;42.632;23.298;2023-09-12T02:21:58;4.07;;;2.90;;
13032;SDS011;6583;42.632;23.298;2023-09-12T02:24:25;3.63;;;3.20;;
13032;SDS011;6583;42.632;23.298;2023-09-12T02:26:52;3.30;;;3.00;;
13032;SDS011;6583;42.632;23.298;2023-09-12T02:29:18;4.17;;;3.00;;
13032;SDS011;6583;42.632;23.298;2023-09-12T02:31:45;3.67;;;3.07;;
13032;SDS011;6583;42.632;23.298;2023-09-12T02:34:12;4.00;;;2.90;;
13032;SDS011;6583;42.632;23.298;2023-09-12T02:36:40;3.40;;;3.00;;
13032;SDS011;6583;42.632;23.298;2023-09-12T02:39:06;3.87;;;2.97;;
13032;SDS011;6583;42.632;23.298;2023-09-12T02:41:33;3.88;;;3.00;;
13032;SDS011;6583;42.632;23.298;2023-09-12T02:43:59;3.07;;;2.77;;
13032;SDS011;6583;42.632;23.298;2023-09-12T02:46:26;3.37;;;3.07;;
13032;SDS011;6583;42.632;23.298;2023-09-12T02:48:53;3.53;;;2.97;;
13032;SDS011;6583;42.632;23.298;2023-09-12T02:51:19;6.37;;;3.50;;
13032;SDS011;6583;42.632;23.298;2023-09-12T02:53:47;4.13;;;3.10;;
13032;SDS011;6583;42.632;23.298;2023-09-12T02:56:14;3.20;;;2.90;;
13032;SDS011;6583;42.632;23.298;2023-09-12T02:58:40;4.13;;;3.07;;
13032;SDS011;6583;42.632;23.298;2023-09-12T03:01:07;3.57;;;2.87;;
13032;SDS011;6583;42.632;23.298;2023-09-12T03:03:34;3.73;;;3.23;;
13032;SDS011;6583;42.632;23.298;2023-09-12T03:06:00;4.17;;;3.27;;
13032;SDS011;6583;42.632;23.298;2023-09-12T03:08:28;3.33;;;3.03;;
13032;SDS011;6583;42.632;23.298;2023-09-12T03:10:57;4.27;;;3.27;;
13032;SDS011;6583;42.632;23.298;2023-09-12T03:13:24;3.50;;;3.20;;
13032;SDS011;6583;42.632;23.298;2023-09-12T03:15:51;3.53;;;2.90;;
13032;SDS011;6583;42.632;23.298;2023-09-12T03:18:18;2.80;;;2.60;;
13032;SDS011;6583;42.632;23.298;2023-09-12T03:20:45;4.37;;;3.23;;
13032;SDS011;6583;42.632;23.298;2023-09-12T03:23:11;3.33;;;3.03;;
13032;SDS011;6583;42.632;23.298;2023-09-12T03:25:38;3.70;;;3.03;;
13032;SDS011;6583;42.632;23.298;2023-09-12T03:28:06;4.67;;;3.50;;
13032;SDS011;6583;42.632;23.298;2023-09-12T03:30:33;5.70;;;3.60;;
13032;SDS011;6583;42.632;23.298;2023-09-12T03:33:01;3.67;;;3.20;;
13032;SDS011;6583;42.632;23.298;2023-09-12T03:35:28;3.30;;;3.00;;
13032;SDS011;6583;42.632;23.298;2023-09-12T03:37:55;4.70;;;3.03;;
13032;SDS011;6583;42.632;23.298;2023-09-12T03:40:21;4.17;;;3.30;;
13032;SDS011;6583;42.632;23.298;2023-09-12T03:42:48;4.50;;;2.90;;
13032;SDS011;6583;42.632;23.298;2023-09-12T03:45:16;5.13;;;2.80;;
13032;SDS011;6583;42.632;23.298;2023-09-12T03:47:43;4.57;;;3.37;;
13032;SDS011;6583;42.632;23.298;2023-09-12T03:50:11;3.87;;;2.90;;
13032;SDS011;6583;42.632;23.298;2023-09-12T03:52:38;3.90;;;3.00;;
13032;SDS011;6583;42.632;23.298;2023-09-12T03:55:05;2.93;;;2.73;;
13032;SDS011;6583;42.632;23.298;2023-09-12T03:57:32;3.40;;;3.10;;
13032;SDS011;6583;42.632;23.298;2023-09-12T03:59:59;2.93;;;2.63;;
13032;SDS011;6583;42.632;23.298;2023-09-12T04:02:27;3.33;;;2.93;;
13032;SDS011;6583;42.632;23.298;2023-09-12T04:04:54;3.47;;;3.10;;
13032;SDS011;6583;42.632;23.298;2023-09-12T04:07:24;12.00;;;3.90;;
13032;SDS011;6583;42.632;23.298;2023-09-12T04:09:51;3.47;;;2.90;;
13032;SDS011;6583;42.632;23.298;2023-09-12T04:12:17;5.33;;;3.00;;
13032;SDS011;6583;42.632;23.298;2023-09-12T04:14:44;6.20;;;3.17;;
13032;SDS011;6583;42.632;23.298;2023-09-12T04:17:10;3.90;;;3.30;;
13032;SDS011;6583;42.632;23.298;2023-09-12T04:19:38;4.90;;;2.90;;
13032;SDS011;6583;42.632;23.298;2023-09-12T04:22:05;3.53;;;3.03;;
13032;SDS011;6583;42.632;23.298;2023-09-12T04:24:32;5.03;;;3.20;;
13032;SDS011;6583;42.632;23.298;2023-09-12T04:26:58;3.37;;;3.00;;
13032;SDS011;6583;42.632;23.298;2023-09-12T04:29:25;4.10;;;3.13;;
13032;SDS011;6583;42.632;23.298;2023-09-12T04:31:52;4.00;;;2.90;;
13032;SDS011;6583;42.632;23.298;2023-09-12T04:34:24;4.40;;;2.90;;
13032;SDS011;6583;42.632;23.298;2023-09-12T04:36:52;5.43;;;3.30;;
13032;SDS011;6583;42.632;23.298;2023-09-12T04:39:19;4.53;;;2.70;;
13032;SDS011;6583;42.632;23.298;2023-09-12T04:41:45;5.40;;;3.20;;
13032;SDS011;6583;42.632;23.298;2023-09-12T04:44:12;3.93;;;3.43;;
13032;SDS011;6583;42.632;23.298;2023-09-12T04:46:39;3.90;;;3.40;;
13032;SDS011;6583;42.632;23.298;2023-09-12T04:49:05;7.73;;;3.43;;
13032;SDS011;6583;42.632;23.298;2023-09-12T04:51:32;9.00;;;3.30;;
13032;SDS011;6583;42.632;23.298;2023-09-12T04:54:01;4.53;;;3.10;;
13032;SDS011;6583;42.632;23.298;2023-09-12T04:56:27;4.13;;;3.17;;
13032;SDS011;6583;42.632;23.298;2023-09-12T04:58:54;10.90;;;3.40;;
13032;SDS011;6583;42.632;23.298;2023-09-12T05:01:21;4.97;;;3.33;;
13032;SDS011;6583;42.632;23.298;2023-09-12T05:03:47;4.57;;;3.10;;
13032;SDS011;6583;42.632;23.298;2023-09-12T05:06:14;4.03;;;2.83;;
13032;SDS011;6583;42.632;23.298;2023-09-12T05:08:40;6.60;;;5.03;;
13032;SDS011;6583;42.632;23.298;2023-09-12T05:11:08;8.60;;;4.80;;
13032;SDS011;6583;42.632;23.298;2023-09-12T05:13:35;7.60;;;5.20;;
13032;SDS011;6583;42.632;23.298;2023-09-12T05:16:04;8.17;;;5.77;;
13032;SDS011;6583;42.632;23.298;2023-09-12T05:18:30;4.87;;;3.90;;
13032;SDS011;6583;42.632;23.298;2023-09-12T05:20:57;6.50;;;4.50;;
13032;SDS011;6583;42.632;23.298;2023-09-12T05:23:24;6.00;;;4.23;;
13032;SDS011;6583;42.632;23.298;2023-09-12T05:25:50;4.67;;;3.90;;
13032;SDS011;6583;42.632;23.298;2023-09-12T05:28:19;6.63;;;4.40;;
13032;SDS011;6583;42.632;23.298;2023-09-12T05:30:45;5.70;;;3.90;;
13032;SDS011;6583;42.632;23.298;2023-09-12T05:33:12;6.60;;;4.80;;
13032;SDS011;6583;42.632;23.298;2023-09-12T05:35:39;5.63;;;4.23;;
13032;SDS011;6583;42.632;23.298;2023-09-12T05:38:06;6.70;;;4.50;;
13032;SDS011;6583;42.632;23.298;2023-09-12T05:40:33;7.87;;;5.17;;
13032;SDS011;6583;42.632;23.298;2023-09-12T05:42:59;6.83;;;4.93;;
13032;SDS011;6583;42.632;23.298;2023-09-12T05:45:28;7.70;;;5.33;;
13032;SDS011;6583;42.632;23.298;2023-09-12T05:47:54;7.20;;;5.23;;
13032;SDS011;6583;42.632;23.298;2023-09-12T05:50:21;7.63;;;5.73;;
13032;SDS011;6583;42.632;23.298;2023-09-12T05:52:48;8.70;;;6.17;;
13032;SDS011;6583;42.632;23.298;2023-09-12T05:55:15;7.47;;;5.87;;
13032;SDS011;6583;42.632;23.298;2023-09-12T05:57:42;10.13;;;6.67;;
13032;SDS011;6583;42.632;23.298;2023-09-12T06:00:09;7.53;;;6.30;;
13032;SDS011;6583;42.632;23.298;2023-09-12T06:02:38;8.67;;;6.07;;
13032;SDS011;6583;42.632;23.298;2023-09-12T06:05:05;8.90;;;5.87;;
13032;SDS011;6583;42.632;23.298;2023-09-12T06:07:32;10.85;;;5.90;;
13032;SDS011;6583;42.632;23.298;2023-09-12T06:09:59;6.55;;;5.85;;
13032;SDS011;6583;42.632;23.298;2023-09-12T06:12:26;7.85;;;5.72;;
13032;SDS011;6583;42.632;23.298;2023-09-12T06:14:53;8.70;;;6.10;;
13032;SDS011;6583;42.632;23.298;2023-09-12T06:17:21;8.30;;;5.28;;
13032;SDS011;6583;42.632;23.298;2023-09-12T06:19:49;8.52;;;5.32;;
13032;SDS011;6583;42.632;23.298;2023-09-12T06:22:16;9.52;;;5.40;;
13032;SDS011;6583;42.632;23.298;2023-09-12T06:24:43;7.43;;;5.85;;
13032;SDS011;6583;42.632;23.298;2023-09-12T06:27:10;7.68;;;5.55;;
13032;SDS011;6583;42.632;23.298;2023-09-12T06:29:37;11.18;;;5.55;;
13032;SDS011;6583;42.632;23.298;2023-09-12T06:32:04;8.65;;;6.03;;
13032;SDS011;6583;42.632;23.298;2023-09-12T06:34:31;11.90;;;6.05;;
13032;SDS011;6583;42.632;23.298;2023-09-12T06:36:59;12.00;;;6.55;;
13032;SDS011;6583;42.632;23.298;2023-09-12T06:39:26;6.65;;;5.80;;
13032;SDS011;6583;42.632;23.298;2023-09-12T06:41:52;8.18;;;6.35;;
13032;SDS011;6583;42.632;23.298;2023-09-12T06:44:19;8.88;;;6.03;;
13032;SDS011;6583;42.632;23.298;2023-09-12T06:46:46;10.35;;;6.07;;
13032;SDS011;6583;42.632;23.298;2023-09-12T06:49:12;10.70;;;7.43;;
13032;SDS011;6583;42.632;23.298;2023-09-12T06:51:39;12.80;;;7.72;;
13032;SDS011;6583;42.632;23.298;2023-09-12T06:54:07;9.88;;;6.78;;
13032;SDS011;6583;42.632;23.298;2023-09-12T06:56:34;10.90;;;7.03;;
13032;SDS011;6583;42.632;23.298;2023-09-12T06:59:02;8.80;;;6.90;;
13032;SDS011;6583;42.632;23.298;2023-09-12T07:01:29;8.07;;;6.97;;
13032;SDS011;6583;42.632;23.298;2023-09-12T07:03:56;8.43;;;6.53;;
13032;SDS011;6583;42.632;23.298;2023-09-12T07:06:22;10.80;;;7.10;;
13032;SDS011;6583;42.632;23.298;2023-09-12T07:08:49;9.77;;;6.78;;
13032;SDS011;6583;42.632;23.298;2023-09-12T07:11:17;12.93;;;7.22;;
13032;SDS011;6583;42.632;23.298;2023-09-12T07:13:44;8.27;;;6.30;;
13032;SDS011;6583;42.632;23.298;2023-09-12T07:16:11;9.20;;;7.00;;
13032;SDS011;6583;42.632;23.298;2023-09-12T07:18:38;10.45;;;6.90;;
13032;SDS011;6583;42.632;23.298;2023-09-12T07:21:05;11.75;;;6.85;;
13032;SDS011;6583;42.632;23.298;2023-09-12T07:23:32;11.43;;;7.28;;
13032;SDS011;6583;42.632;23.298;2023-09-12T07:25:59;10.20;;;6.68;;
13032;SDS011;6583;42.632;23.298;2023-09-12T07:28:29;12.68;;;6.72;;
13032;SDS011;6583;42.632;23.298;2023-09-12T07:30:57;11.25;;;7.15;;
13032;SDS011;6583;42.632;23.298;2023-09-12T07:33:24;13.75;;;7.50;;
13032;SDS011;6583;42.632;23.298;2023-09-12T07:35:51;10.90;;;7.00;;
13032;SDS011;6583;42.632;23.298;2023-09-12T07:38:18;11.43;;;6.78;;
13032;SDS011;6583;42.632;23.298;2023-09-12T07:40:46;12.10;;;7.20;;
13032;SDS011;6583;42.632;23.298;2023-09-12T07:43:13;10.07;;;7.20;;
13032;SDS011;6583;42.632;23.298;2023-09-12T07:45:41;9.27;;;6.90;;
13032;SDS011;6583;42.632;23.298;2023-09-12T07:48:08;12.00;;;7.18;;
13032;SDS011;6583;42.632;23.298;2023-09-12T07:50:36;10.15;;;7.00;;
13032;SDS011;6583;42.632;23.298;2023-09-12T07:53:03;10.43;;;6.88;;
13032;SDS011;6583;42.632;23.298;2023-09-12T07:55:30;12.25;;;7.30;;
13032;SDS011;6583;42.632;23.298;2023-09-12T07:58:01;12.40;;;8.48;;
13032;SDS011;6583;42.632;23.298;2023-09-12T08:00:27;10.32;;;6.93;;
13032;SDS011;6583;42.632;23.298;2023-09-12T08:02:55;12.95;;;7.10;;
13032;SDS011;6583;42.632;23.298;2023-09-12T08:05:22;8.90;;;7.15;;
13032;SDS011;6583;42.632;23.298;2023-09-12T08:07:49;11.10;;;7.22;;
13032;SDS011;6583;42.632;23.298;2023-09-12T08:10:15;12.10;;;6.55;;
13032;SDS011;6583;42.632;23.298;2023-09-12T08:12:42;12.57;;;6.72;;
13032;SDS011;6583;42.632;23.298;2023-09-12T08:15:09;8.88;;;5.72;;
13032;SDS011;6583;42.632;23.298;2023-09-12T08:17:36;10.57;;;6.10;;
13032;SDS011;6583;42.632;23.298;2023-09-12T08:20:05;7.47;;;5.85;;
13032;SDS011;6583;42.632;23.298;2023-09-12T08:22:35;7.50;;;5.63;;
13032;SDS011;6583;42.632;23.298;2023-09-12T08:25:01;6.93;;;5.32;;
13032;SDS011;6583;42.632;23.298;2023-09-12T08:27:28;8.13;;;5.80;;
13032;SDS011;6583;42.632;23.298;2023-09-12T08:29:55;7.93;;;5.20;;
13032;SDS011;6583;42.632;23.298;2023-09-12T08:32:21;6.72;;;5.03;;
13032;SDS011;6583;42.632;23.298;2023-09-12T08:34:48;7.40;;;5.65;;
13032;SDS011;6583;42.632;23.298;2023-09-12T08:37:16;9.68;;;5.13;;
13032;SDS011;6583;42.632;23.298;2023-09-12T08:39:43;7.28;;;4.95;;
13032;SDS011;6583;42.632;23.298;2023-09-12T08:42:12;10.23;;;5.00;;
13032;SDS011;6583;42.632;23.298;2023-09-12T08:44:40;8.32;;;4.70;;
13032;SDS011;6583;42.632;23.298;2023-09-12T08:47:07;6.00;;;4.32;;
13032;SDS011;6583;42.632;23.298;2023-09-12T08:49:35;6.40;;;4.63;;
13032;SDS011;6583;42.632;23.298;2023-09-12T08:52:03;7.00;;;4.45;;
13032;SDS011;6583;42.632;23.298;2023-09-12T08:54:31;6.30;;;4.20;;
13032;SDS011;6583;42.632;23.298;2023-09-12T08:56:59;8.00;;;4.55;;
13032;SDS011;6583;42.632;23.298;2023-09-12T08:59:29;6.40;;;4.30;;
13032;SDS011;6583;42.632;23.298;2023-09-12T09:01:56;6.82;;;3.58;;
13032;SDS011;6583;42.632;23.298;2023-09-12T09:04:24;7.82;;;3.70;;
13032;SDS011;6583;42.632;23.298;2023-09-12T09:06:56;6.30;;;3.75;;
13032;SDS011;6583;42.632;23.298;2023-09-12T09:09:23;7.85;;;3.97;;
13032;SDS011;6583;42.632;23.298;2023-09-12T09:11:51;6.88;;;3.90;;
13032;SDS011;6583;42.632;23.298;2023-09-12T09:14:18;8.45;;;4.22;;
13032;SDS011;6583;42.632;23.298;2023-09-12T09:16:45;5.90;;;4.13;;
13032;SDS011;6583;42.632;23.298;2023-09-12T09:19:11;6.88;;;4.18;;
13032;SDS011;6583;42.632;23.298;2023-09-12T09:21:38;6.00;;;4.07;;
13032;SDS011;6583;42.632;23.298;2023-09-12T09:24:07;7.55;;;4.13;;
13032;SDS011;6583;42.632;23.298;2023-09-12T09:26:44;5.68;;;4.72;;
13032;SDS011;6583;42.632;23.298;2023-09-12T09:29:14;7.10;;;4.07;;
13032;SDS011;6583;42.632;23.298;2023-09-12T09:31:42;8.75;;;4.55;;
13032;SDS011;6583;42.632;23.298;2023-09-12T09:34:10;8.70;;;4.28;;
13032;SDS011;6583;42.632;23.298;2023-09-12T09:36:40;6.53;;;4.13;;
13032;SDS011;6583;42.632;23.298;2023-09-12T09:39:07;5.95;;;4.25;;
13032;SDS011;6583;42.632;23.298;2023-09-12T09:41:34;6.28;;;4.72;;
13032;SDS011;6583;42.632;23.298;2023-09-12T09:44:02;4.82;;;4.20;;
13032;SDS011;6583;42.632;23.298;2023-09-12T09:46:30;6.75;;;4.20;;
13032;SDS011;6583;42.632;23.298;2023-09-12T09:48:58;7.85;;;4.32;;
13032;SDS011;6583;42.632;23.298;2023-09-12T09:51:25;9.52;;;4.47;;
13032;SDS011;6583;42.632;23.298;2023-09-12T09:53:52;7.20;;;4.05;;
13032;SDS011;6583;42.632;23.298;2023-09-12T09:56:23;9.75;;;4.30;;
13032;SDS011;6583;42.632;23.298;2023-09-12T09:58:50;6.50;;;4.35;;
13032;SDS011;6583;42.632;23.298;2023-09-12T10:01:19;7.78;;;4.15;;
13032;SDS011;6583;42.632;23.298;2023-09-12T10:03:48;7.45;;;4.60;;
13032;SDS011;6583;42.632;23.298;2023-09-12T10:06:16;6.32;;;4.35;;
13032;SDS011;6583;42.632;23.298;2023-09-12T10:08:44;10.95;;;4.18;;
13032;SDS011;6583;42.632;23.298;2023-09-12T10:11:12;6.57;;;4.00;;
13032;SDS011;6583;42.632;23.298;2023-09-12T10:13:42;6.35;;;4.18;;
13032;SDS011;6583;42.632;23.298;2023-09-12T10:16:12;5.28;;;4.25;;
13032;SDS011;6583;42.632;23.298;2023-09-12T10:18:43;7.53;;;3.92;;
13032;SDS011;6583;42.632;23.298;2023-09-12T10:21:21;5.95;;;4.20;;
13032;SDS011;6583;42.632;23.298;2023-09-12T10:23:54;8.40;;;4.60;;
13032;SDS011;6583;42.632;23.298;2023-09-12T10:26:24;7.78;;;4.45;;
13032;SDS011;6583;42.632;23.298;2023-09-12T10:28:51;7.93;;;4.90;;
13032;SDS011;6583;42.632;23.298;2023-09-12T10:31:18;7.38;;;4.50;;
13032;SDS011;6583;42.632;23.298;2023-09-12T10:33:45;5.63;;;4.30;;
13032;SDS011;6583;42.632;23.298;2023-09-12T10:36:16;7.88;;;3.67;;
13032;SDS011;6583;42.632;23.298;2023-09-12T10:38:44;8.00;;;4.63;;
13032;SDS011;6583;42.632;23.298;2023-09-12T10:41:14;4.80;;;4.00;;
13032;SDS011;6583;42.632;23.298;2023-09-12T10:43:42;6.88;;;4.32;;
13032;SDS011;6583;42.632;23.298;2023-09-12T10:46:14;8.68;;;4.00;;
13032;SDS011;6583;42.632;23.298;2023-09-12T10:48:41;7.03;;;4.43;;
13032;SDS011;6583;42.632;23.298;2023-09-12T10:51:10;7.60;;;4.28;;
13032;SDS011;6583;42.632;23.298;2023-09-12T10:53:38;5.57;;;3.95;;
13032;SDS011;6583;42.632;23.298;2023-09-12T10:56:15;9.98;;;4.43;;
13032;SDS011;6583;42.632;23.298;2023-09-12T11:01:37;7.95;;;4.00;;
13032;SDS011;6583;42.632;23.298;2023-09-12T11:06:59;8.57;;;5.10;;
13032;SDS011;6583;42.632;23.298;2023-09-12T11:09:27;7.13;;;4.57;;
13032;SDS011;6583;42.632;23.298;2023-09-12T11:11:54;6.97;;;3.67;;
13032;SDS011;6583;42.632;23.298;2023-09-12T11:14:23;6.82;;;3.60;;
13032;SDS011;6583;42.632;23.298;2023-09-12T11:19:49;7.20;;;3.70;;
13032;SDS011;6583;42.632;23.298;2023-09-12T11:22:22;6.80;;;3.92;;
13032;SDS011;6583;42.632;23.298;2023-09-12T11:24:50;5.35;;;3.80;;
13032;SDS011;6583;42.632;23.298;2023-09-12T11:27:18;7.72;;;3.58;;
13032;SDS011;6583;42.632;23.298;2023-09-12T11:29:45;5.63;;;3.47;;
13032;SDS011;6583;42.632;23.298;2023-09-12T11:32:24;7.45;;;3.65;;
13032;SDS011;6583;42.632;23.298;2023-09-12T11:34:52;6.90;;;3.00;;
13032;SDS011;6583;42.632;23.298;2023-09-12T11:37:24;6.00;;;3.25;;
13032;SDS011;6583;42.632;23.298;2023-09-12T11:39:52;6.00;;;3.60;;
13032;SDS011;6583;42.632;23.298;2023-09-12T11:42:20;10.27;;;3.50;;
13032;SDS011;6583;42.632;23.298;2023-09-12T11:44:48;4.22;;;3.47;;
13032;SDS011;6583;42.632;23.298;2023-09-12T11:47:16;6.65;;;3.60;;
13032;SDS011;6583;42.632;23.298;2023-09-12T11:49:42;8.35;;;3.90;;
13032;SDS011;6583;42.632;23.298;2023-09-12T11:52:10;7.95;;;3.80;;
13032;SDS011;6583;42.632;23.298;2023-09-12T11:54:39;3.92;;;3.38;;
13032;SDS011;6583;42.632;23.298;2023-09-12T11:57:06;5.88;;;3.58;;
13032;SDS011;6583;42.632;23.298;2023-09-12T11:59:36;5.68;;;3.58;;
13032;SDS011;6583;42.632;23.298;2023-09-12T12:02:05;5.13;;;3.83;;
13032;SDS011;6583;42.632;23.298;2023-09-12T12:04:33;7.15;;;4.53;;
13032;SDS011;6583;42.632;23.298;2023-09-12T12:07:01;5.65;;;3.20;;
13032;SDS011;6583;42.632;23.298;2023-09-12T12:09:29;4.53;;;3.42;;
13032;SDS011;6583;42.632;23.298;2023-09-12T12:11:59;5.88;;;3.47;;
13032;SDS011;6583;42.632;23.298;2023-09-12T12:14:33;6.55;;;3.67;;
13032;SDS011;6583;42.632;23.298;2023-09-12T12:17:05;4.03;;;3.47;;
13032;SDS011;6583;42.632;23.298;2023-09-12T12:19:33;6.00;;;3.53;;
13032;SDS011;6583;42.632;23.298;2023-09-12T12:22:01;5.95;;;3.95;;
13032;SDS011;6583;42.632;23.298;2023-09-12T12:24:35;6.80;;;4.13;;
13032;SDS011;6583;42.632;23.298;2023-09-12T12:27:04;5.32;;;3.58;;
13032;SDS011;6583;42.632;23.298;2023-09-12T12:29:33;5.90;;;4.10;;
13032;SDS011;6583;42.632;23.298;2023-09-12T12:32:00;5.65;;;4.13;;
13032;SDS011;6583;42.632;23.298;2023-09-12T12:34:26;6.30;;;4.50;;
13032;SDS011;6583;42.632;23.298;2023-09-12T12:36:57;7.25;;;4.03;;
13032;SDS011;6583;42.632;23.298;2023-09-12T12:39:25;6.70;;;4.15;;
13032;SDS011;6583;42.632;23.298;2023-09-12T12:41:52;4.65;;;4.05;;
13032;SDS011;6583;42.632;23.298;2023-09-12T12:44:21;7.30;;;3.80;;
13032;SDS011;6583;42.632;23.298;2023-09-12T12:46:48;8.05;;;4.07;;
13032;SDS011;6583;42.632;23.298;2023-09-12T12:49:15;6.72;;;3.92;;
13032;SDS011;6583;42.632;23.298;2023-09-12T12:51:42;6.97;;;4.10;;
13032;SDS011;6583;42.632;23.298;2023-09-12T12:54:09;6.18;;;4.57;;
13032;SDS011;6583;42.632;23.298;2023-09-12T12:56:37;6.55;;;4.30;;
13032;SDS011;6583;42.632;23.298;2023-09-12T12:59:05;5.70;;;3.97;;
13032;SDS011;6583;42.632;23.298;2023-09-12T13:01:35;4.97;;;3.78;;
13032;SDS011;6583;42.632;23.298;2023-09-12T13:04:04;6.78;;;4.05;;
13032;SDS011;6583;42.632;23.298;2023-09-12T13:06:31;5.63;;;4.13;;
13032;SDS011;6583;42.632;23.298;2023-09-12T13:09:01;7.22;;;4.45;;
13032;SDS011;6583;42.632;23.298;2023-09-12T13:11:31;5.97;;;3.85;;
13032;SDS011;6583;42.632;23.298;2023-09-12T13:14:01;4.82;;;4.10;;
13032;SDS011;6583;42.632;23.298;2023-09-12T13:16:29;7.03;;;4.15;;
13032;SDS011;6583;42.632;23.298;2023-09-12T13:18:57;7.90;;;4.32;;
13032;SDS011;6583;42.632;23.298;2023-09-12T13:21:23;5.95;;;3.90;;
13032;SDS011;6583;42.632;23.298;2023-09-12T13:23:50;6.10;;;3.88;;
13032;SDS011;6583;42.632;23.298;2023-09-12T13:26:17;8.18;;;4.47;;
13032;SDS011;6583;42.632;23.298;2023-09-12T13:28:44;5.20;;;3.90;;
13032;SDS011;6583;42.632;23.298;2023-09-12T13:31:10;6.50;;;3.55;;
13032;SDS011;6583;42.632;23.298;2023-09-12T13:33:37;7.57;;;3.70;;
13032;SDS011;6583;42.632;23.298;2023-09-12T13:36:06;9.05;;;4.55;;
13032;SDS011;6583;42.632;23.298;2023-09-12T13:38:33;6.30;;;3.97;;
13032;SDS011;6583;42.632;23.298;2023-09-12T13:40:59;6.65;;;4.18;;
13032;SDS011;6583;42.632;23.298;2023-09-12T13:43:26;7.07;;;3.90;;
13032;SDS011;6583;42.632;23.298;2023-09-12T13:45:53;6.25;;;4.00;;
13032;SDS011;6583;42.632;23.298;2023-09-12T13:48:20;6.82;;;3.80;;
13032;SDS011;6583;42.632;23.298;2023-09-12T13:50:46;8.95;;;4.57;;
13032;SDS011;6583;42.632;23.298;2023-09-12T13:53:14;5.85;;;3.83;;
13032;SDS011;6583;42.632;23.298;2023-09-12T13:55:41;4.55;;;3.70;;
13032;SDS011;6583;42.632;23.298;2023-09-12T13:58:08;5.57;;;3.95;;
13032;SDS011;6583;42.632;23.298;2023-09-12T14:00:34;7.82;;;4.05;;
13032;SDS011;6583;42.632;23.298;2023-09-12T14:03:01;6.25;;;3.88;;
13032;SDS011;6583;42.632;23.298;2023-09-12T14:05:28;6.97;;;4.35;;
13032;SDS011;6583;42.632;23.298;2023-09-12T14:07:54;7.15;;;4.20;;
13032;SDS011;6583;42.632;23.298;2023-09-12T14:10:22;6.75;;;4.40;;
13032;SDS011;6583;42.632;23.298;2023-09-12T14:12:49;6.38;;;4.03;;
13032;SDS011;6583;42.632;23.298;2023-09-12T14:15:16;6.30;;;4.32;;
13032;SDS011;6583;42.632;23.298;2023-09-12T14:17:42;9.63;;;4.30;;
13032;SDS011;6583;42.632;23.298;2023-09-12T14:20:09;4.47;;;3.90;;
13032;SDS011;6583;42.632;23.298;2023-09-12T14:22:40;5.55;;;4.10;;
13032;SDS011;6583;42.632;23.298;2023-09-12T14:25:07;7.40;;;3.90;;
13032;SDS011;6583;42.632;23.298;2023-09-12T14:27:41;5.07;;;4.00;;
13032;SDS011;6583;42.632;23.298;2023-09-12T14:30:10;6.22;;;4.10;;
13032;SDS011;6583;42.632;23.298;2023-09-12T14:32:38;5.82;;;4.32;;
13032;SDS011;6583;42.632;23.298;2023-09-12T14:35:05;6.53;;;4.22;;
13032;SDS011;6583;42.632;23.298;2023-09-12T14:37:32;7.25;;;4.00;;
13032;SDS011;6583;42.632;23.298;2023-09-12T14:40:00;5.32;;;3.60;;
13032;SDS011;6583;42.632;23.298;2023-09-12T14:42:29;5.28;;;3.90;;
13032;SDS011;6583;42.632;23.298;2023-09-12T14:44:57;6.22;;;3.88;;
13032;SDS011;6583;42.632;23.298;2023-09-12T14:47:24;6.95;;;3.90;;
13032;SDS011;6583;42.632;23.298;2023-09-12T14:49:52;7.50;;;4.10;;
13032;SDS011;6583;42.632;23.298;2023-09-12T14:52:19;4.60;;;3.97;;
13032;SDS011;6583;42.632;23.298;2023-09-12T14:54:46;7.97;;;4.20;;
13032;SDS011;6583;42.632;23.298;2023-09-12T14:57:13;5.28;;;3.70;;
13032;SDS011;6583;42.632;23.298;2023-09-12T14:59:39;5.15;;;3.72;;